sensor_id;sensor_type;location;lat;lon;timestamp;temperature;humidity
12817;DHT22;6473;51.552;6.716;2022-10-16T00:02:16;13.20;99.90
12817;DHT22;6473;51.552;6.716;2022-10-16T00:04:49;13.20;99.90
12817;DHT22;6473;51.552;6.716;2022-10-16T00:07:44;13.20;99.90
12817;DHT22;6473;51.552;6.716;2022-10-16T00:10:10;13.30;99.90
12817;DHT22;6473;51.552;6.716;2022-10-16T00:15:06;13.30;99.90
12817;DHT22;6473;51.552;6.716;2022-10-16T00:17:33;13.20;99.90
12817;DHT22;6473;51.552;6.716;2022-10-16T00:22:30;13.10;99.90
12817;DHT22;6473;51.552;6.716;2022-10-16T00:25:06;13.10;99.90
12817;DHT22;6473;51.552;6.716;2022-10-16T00:27:33;13.20;99.90
12817;DHT22;6473;51.552;6.716;2022-10-16T00:30:01;13.30;99.90
12817;DHT22;6473;51.552;6.716;2022-10-16T00:32:28;13.20;99.90
12817;DHT22;6473;51.552;6.716;2022-10-16T00:37:23;13.20;99.90
12817;DHT22;6473;51.552;6.716;2022-10-16T00:44:53;13.30;99.90
12817;DHT22;6473;51.552;6.716;2022-10-16T00:47:26;13.30;99.90
12817;DHT22;6473;51.552;6.716;2022-10-16T00:50:01;13.30;99.90
12817;DHT22;6473;51.552;6.716;2022-10-16T00:52:29;13.30;99.90
12817;DHT22;6473;51.552;6.716;2022-10-16T00:54:56;13.30;99.90
12817;DHT22;6473;51.552;6.716;2022-10-16T00:57:25;13.20;99.90
12817;DHT22;6473;51.552;6.716;2022-10-16T00:59:53;13.30;99.90
12817;DHT22;6473;51.552;6.716;2022-10-16T01:02:20;9.80;99.90
12817;DHT22;6473;51.552;6.716;2022-10-16T01:04:52;15.60;99.90
12817;DHT22;6473;51.552;6.716;2022-10-16T01:07:31;13.20;99.90
12817;DHT22;6473;51.552;6.716;2022-10-16T01:10:09;13.20;99.90
12817;DHT22;6473;51.552;6.716;2022-10-16T01:12:46;13.20;99.90
12817;DHT22;6473;51.552;6.716;2022-10-16T01:15:18;13.20;99.90
12817;DHT22;6473;51.552;6.716;2022-10-16T01:17:51;13.10;99.90
12817;DHT22;6473;51.552;6.716;2022-10-16T01:20:26;13.10;99.90
12817;DHT22;6473;51.552;6.716;2022-10-16T01:23:06;13.10;99.90
12817;DHT22;6473;51.552;6.716;2022-10-16T01:26:08;13.10;99.90
12817;DHT22;6473;51.552;6.716;2022-10-16T01:28:47;13.10;99.90
12817;DHT22;6473;51.552;6.716;2022-10-16T01:31:18;13.10;99.90
12817;DHT22;6473;51.552;6.716;2022-10-16T01:33:50;13.00;99.90
12817;DHT22;6473;51.552;6.716;2022-10-16T01:36:23;13.00;99.90
12817;DHT22;6473;51.552;6.716;2022-10-16T01:38:54;13.00;99.90
12817;DHT22;6473;51.552;6.716;2022-10-16T01:41:26;13.10;99.90
12817;DHT22;6473;51.552;6.716;2022-10-16T01:43:59;13.10;99.90
12817;DHT22;6473;51.552;6.716;2022-10-16T01:46:28;13.10;99.90
12817;DHT22;6473;51.552;6.716;2022-10-16T01:48:59;13.00;99.90
12817;DHT22;6473;51.552;6.716;2022-10-16T01:51:27;13.10;99.90
12817;DHT22;6473;51.552;6.716;2022-10-16T01:53:58;13.20;99.90
12817;DHT22;6473;51.552;6.716;2022-10-16T01:56:27;13.20;99.90
12817;DHT22;6473;51.552;6.716;2022-10-16T01:59:01;13.30;99.90
12817;DHT22;6473;51.552;6.716;2022-10-16T02:01:30;16.20;99.90
12817;DHT22;6473;51.552;6.716;2022-10-16T02:04:04;14.40;99.90
12817;DHT22;6473;51.552;6.716;2022-10-16T02:06:37;13.40;99.90
12817;DHT22;6473;51.552;6.716;2022-10-16T02:09:04;13.40;99.90
12817;DHT22;6473;51.552;6.716;2022-10-16T02:11:31;14.10;99.90
12817;DHT22;6473;51.552;6.716;2022-10-16T02:14:02;13.50;99.90
12817;DHT22;6473;51.552;6.716;2022-10-16T02:16:36;13.40;99.90
12817;DHT22;6473;51.552;6.716;2022-10-16T02:19:03;15.20;99.90
12817;DHT22;6473;51.552;6.716;2022-10-16T02:21:36;13.40;99.90
12817;DHT22;6473;51.552;6.716;2022-10-16T02:24:09;13.40;99.90
12817;DHT22;6473;51.552;6.716;2022-10-16T02:26:44;13.40;99.90
12817;DHT22;6473;51.552;6.716;2022-10-16T02:29:19;13.40;99.90
12817;DHT22;6473;51.552;6.716;2022-10-16T02:31:58;13.40;99.90
12817;DHT22;6473;51.552;6.716;2022-10-16T02:34:32;13.50;99.90
12817;DHT22;6473;51.552;6.716;2022-10-16T02:37:00;13.40;99.90
12817;DHT22;6473;51.552;6.716;2022-10-16T02:39:29;13.50;99.90
12817;DHT22;6473;51.552;6.716;2022-10-16T02:42:00;13.50;99.90
12817;DHT22;6473;51.552;6.716;2022-10-16T02:44:32;13.60;99.90
12817;DHT22;6473;51.552;6.716;2022-10-16T02:47:01;13.60;99.90
12817;DHT22;6473;51.552;6.716;2022-10-16T02:51:55;13.60;99.90
12817;DHT22;6473;51.552;6.716;2022-10-16T02:54:22;13.60;99.90
12817;DHT22;6473;51.552;6.716;2022-10-16T02:59:17;13.60;99.90
12817;DHT22;6473;51.552;6.716;2022-10-16T03:01:46;13.70;99.90
12817;DHT22;6473;51.552;6.716;2022-10-16T03:04:13;13.70;99.90
12817;DHT22;6473;51.552;6.716;2022-10-16T03:06:40;13.80;99.90
12817;DHT22;6473;51.552;6.716;2022-10-16T03:09:07;13.70;99.90
12817;DHT22;6473;51.552;6.716;2022-10-16T03:11:34;13.70;99.90
12817;DHT22;6473;51.552;6.716;2022-10-16T03:14:01;13.70;99.90
12817;DHT22;6473;51.552;6.716;2022-10-16T03:16:28;13.70;99.90
12817;DHT22;6473;51.552;6.716;2022-10-16T03:18:59;13.60;99.90
12817;DHT22;6473;51.552;6.716;2022-10-16T03:21:43;13.60;99.90
12817;DHT22;6473;51.552;6.716;2022-10-16T03:24:11;13.70;99.90
12817;DHT22;6473;51.552;6.716;2022-10-16T03:26:38;13.60;99.90
12817;DHT22;6473;51.552;6.716;2022-10-16T03:29:05;13.60;99.90
12817;DHT22;6473;51.552;6.716;2022-10-16T03:34:01;13.60;99.90
12817;DHT22;6473;51.552;6.716;2022-10-16T03:36:28;13.60;99.90
12817;DHT22;6473;51.552;6.716;2022-10-16T03:38:56;13.60;99.90
12817;DHT22;6473;51.552;6.716;2022-10-16T03:41:23;13.60;99.90
12817;DHT22;6473;51.552;6.716;2022-10-16T03:48:45;13.50;99.90
12817;DHT22;6473;51.552;6.716;2022-10-16T03:51:13;13.50;99.90
12817;DHT22;6473;51.552;6.716;2022-10-16T03:53:40;13.50;99.90
12817;DHT22;6473;51.552;6.716;2022-10-16T03:56:09;13.40;99.90
12817;DHT22;6473;51.552;6.716;2022-10-16T03:58:35;13.50;99.90
12817;DHT22;6473;51.552;6.716;2022-10-16T04:01:02;14.70;99.90
12817;DHT22;6473;51.552;6.716;2022-10-16T04:03:29;13.50;99.90
12817;DHT22;6473;51.552;6.716;2022-10-16T04:05:56;13.40;99.90
12817;DHT22;6473;51.552;6.716;2022-10-16T04:08:25;13.40;99.90
12817;DHT22;6473;51.552;6.716;2022-10-16T04:10:52;13.40;99.90
12817;DHT22;6473;51.552;6.716;2022-10-16T04:13:19;13.40;99.90
12817;DHT22;6473;51.552;6.716;2022-10-16T04:15:48;13.50;99.90
12817;DHT22;6473;51.552;6.716;2022-10-16T04:18:15;13.50;99.90
12817;DHT22;6473;51.552;6.716;2022-10-16T04:20:42;13.50;99.90
12817;DHT22;6473;51.552;6.716;2022-10-16T04:25:38;13.40;99.90
12817;DHT22;6473;51.552;6.716;2022-10-16T04:28:05;13.40;99.90
12817;DHT22;6473;51.552;6.716;2022-10-16T04:30:38;14.60;99.90
12817;DHT22;6473;51.552;6.716;2022-10-16T04:33:06;13.40;99.90
12817;DHT22;6473;51.552;6.716;2022-10-16T04:35:33;13.40;99.90
12817;DHT22;6473;51.552;6.716;2022-10-16T04:38:00;13.30;99.90
12817;DHT22;6473;51.552;6.716;2022-10-16T04:40:30;13.40;99.90
12817;DHT22;6473;51.552;6.716;2022-10-16T04:42:59;13.30;99.90
12817;DHT22;6473;51.552;6.716;2022-10-16T04:45:26;13.30;99.90
12817;DHT22;6473;51.552;6.716;2022-10-16T04:47:56;13.30;99.90
12817;DHT22;6473;51.552;6.716;2022-10-16T04:50:23;13.40;99.90
12817;DHT22;6473;51.552;6.716;2022-10-16T04:53:04;13.40;99.90
12817;DHT22;6473;51.552;6.716;2022-10-16T04:58:11;13.40;99.90
12817;DHT22;6473;51.552;6.716;2022-10-16T05:00:38;13.40;99.90
12817;DHT22;6473;51.552;6.716;2022-10-16T05:03:22;13.30;99.90
12817;DHT22;6473;51.552;6.716;2022-10-16T05:06:47;13.40;99.90
12817;DHT22;6473;51.552;6.716;2022-10-16T05:12:42;13.40;99.90
12817;DHT22;6473;51.552;6.716;2022-10-16T05:15:09;13.40;99.90
12817;DHT22;6473;51.552;6.716;2022-10-16T05:20:05;13.40;99.90
12817;DHT22;6473;51.552;6.716;2022-10-16T05:22:32;13.30;99.90
12817;DHT22;6473;51.552;6.716;2022-10-16T05:24:58;13.30;99.90
12817;DHT22;6473;51.552;6.716;2022-10-16T05:29:54;13.40;99.90
12817;DHT22;6473;51.552;6.716;2022-10-16T05:32:21;13.80;99.90
12817;DHT22;6473;51.552;6.716;2022-10-16T05:37:16;13.30;99.90
12817;DHT22;6473;51.552;6.716;2022-10-16T05:39:43;13.20;99.90
12817;DHT22;6473;51.552;6.716;2022-10-16T05:42:09;13.10;99.90
12817;DHT22;6473;51.552;6.716;2022-10-16T05:44:36;13.20;99.90
12817;DHT22;6473;51.552;6.716;2022-10-16T05:47:05;13.10;99.90
12817;DHT22;6473;51.552;6.716;2022-10-16T05:49:38;13.10;99.90
12817;DHT22;6473;51.552;6.716;2022-10-16T05:52:05;13.10;99.90
12817;DHT22;6473;51.552;6.716;2022-10-16T05:54:38;13.10;99.90
12817;DHT22;6473;51.552;6.716;2022-10-16T05:59:32;13.00;99.90
12817;DHT22;6473;51.552;6.716;2022-10-16T06:02:15;13.00;99.90
12817;DHT22;6473;51.552;6.716;2022-10-16T06:04:42;13.00;99.90
12817;DHT22;6473;51.552;6.716;2022-10-16T06:07:09;12.90;99.90
12817;DHT22;6473;51.552;6.716;2022-10-16T06:09:36;12.90;99.90
12817;DHT22;6473;51.552;6.716;2022-10-16T06:16:58;12.90;99.90
12817;DHT22;6473;51.552;6.716;2022-10-16T06:19:26;12.90;99.90
12817;DHT22;6473;51.552;6.716;2022-10-16T06:21:53;12.90;99.90
12817;DHT22;6473;51.552;6.716;2022-10-16T06:24:20;13.00;99.90
12817;DHT22;6473;51.552;6.716;2022-10-16T06:26:56;13.00;99.90
12817;DHT22;6473;51.552;6.716;2022-10-16T06:32:07;13.00;99.90
12817;DHT22;6473;51.552;6.716;2022-10-16T06:34:41;13.00;99.90
12817;DHT22;6473;51.552;6.716;2022-10-16T06:44:35;13.00;99.90
12817;DHT22;6473;51.552;6.716;2022-10-16T06:47:02;13.00;99.90
12817;DHT22;6473;51.552;6.716;2022-10-16T06:49:34;13.00;99.90
12817;DHT22;6473;51.552;6.716;2022-10-16T06:52:03;13.00;99.90
12817;DHT22;6473;51.552;6.716;2022-10-16T06:54:34;13.00;99.90
12817;DHT22;6473;51.552;6.716;2022-10-16T06:59:30;13.00;99.90
12817;DHT22;6473;51.552;6.716;2022-10-16T07:04:24;13.00;99.90
12817;DHT22;6473;51.552;6.716;2022-10-16T07:09:20;13.00;99.90
12817;DHT22;6473;51.552;6.716;2022-10-16T07:11:48;13.00;99.90
12817;DHT22;6473;51.552;6.716;2022-10-16T07:14:17;13.00;99.90
12817;DHT22;6473;51.552;6.716;2022-10-16T07:16:44;13.00;99.90
12817;DHT22;6473;51.552;6.716;2022-10-16T07:21:40;13.00;99.90
12817;DHT22;6473;51.552;6.716;2022-10-16T07:24:12;13.10;99.90
12817;DHT22;6473;51.552;6.716;2022-10-16T07:26:42;13.10;99.90
12817;DHT22;6473;51.552;6.716;2022-10-16T07:29:12;13.20;99.90
12817;DHT22;6473;51.552;6.716;2022-10-16T07:31:40;13.30;99.90
12817;DHT22;6473;51.552;6.716;2022-10-16T07:34:09;13.50;99.90
12817;DHT22;6473;51.552;6.716;2022-10-16T07:42:33;13.80;99.90
12817;DHT22;6473;51.552;6.716;2022-10-16T07:45:05;14.00;99.90
12817;DHT22;6473;51.552;6.716;2022-10-16T07:47:33;14.20;99.90
12817;DHT22;6473;51.552;6.716;2022-10-16T07:54:55;15.30;99.90
12817;DHT22;6473;51.552;6.716;2022-10-16T07:59:58;16.00;99.90
12817;DHT22;6473;51.552;6.716;2022-10-16T08:05:27;16.80;99.90
12817;DHT22;6473;51.552;6.716;2022-10-16T08:07:58;17.50;99.90
12817;DHT22;6473;51.552;6.716;2022-10-16T08:10:31;17.80;99.90
12817;DHT22;6473;51.552;6.716;2022-10-16T08:15:47;18.00;99.90
12817;DHT22;6473;51.552;6.716;2022-10-16T08:19:27;18.30;99.90
12817;DHT22;6473;51.552;6.716;2022-10-16T08:32:13;19.40;78.50
12817;DHT22;6473;51.552;6.716;2022-10-16T08:39:35;19.60;84.70
12817;DHT22;6473;51.552;6.716;2022-10-16T08:42:23;20.00;80.50
12817;DHT22;6473;51.552;6.716;2022-10-16T08:48:21;20.30;42.90
12817;DHT22;6473;51.552;6.716;2022-10-16T08:51:27;19.90;61.40
12817;DHT22;6473;51.552;6.716;2022-10-16T08:54:08;19.80;61.90
12817;DHT22;6473;51.552;6.716;2022-10-16T08:58:12;19.90;66.80
12817;DHT22;6473;51.552;6.716;2022-10-16T09:01:11;20.40;62.20
12817;DHT22;6473;51.552;6.716;2022-10-16T09:10:02;20.10;48.90
12817;DHT22;6473;51.552;6.716;2022-10-16T09:12:38;20.20;57.00
12817;DHT22;6473;51.552;6.716;2022-10-16T09:15:48;20.20;55.00
12817;DHT22;6473;51.552;6.716;2022-10-16T09:18:26;19.70;57.30
12817;DHT22;6473;51.552;6.716;2022-10-16T09:21:04;20.30;74.60
12817;DHT22;6473;51.552;6.716;2022-10-16T09:24:15;21.00;35.00
12817;DHT22;6473;51.552;6.716;2022-10-16T09:26:58;21.00;56.50
12817;DHT22;6473;51.552;6.716;2022-10-16T09:29:26;21.00;24.30
12817;DHT22;6473;51.552;6.716;2022-10-16T09:31:54;21.40;34.60
12817;DHT22;6473;51.552;6.716;2022-10-16T09:34:29;21.40;17.60
12817;DHT22;6473;51.552;6.716;2022-10-16T09:37:05;21.10;20.00
12817;DHT22;6473;51.552;6.716;2022-10-16T09:39:46;21.20;25.30
12817;DHT22;6473;51.552;6.716;2022-10-16T09:42:16;21.10;13.00
12817;DHT22;6473;51.552;6.716;2022-10-16T09:44:49;20.90;25.90
12817;DHT22;6473;51.552;6.716;2022-10-16T09:47:36;21.00;11.80
12817;DHT22;6473;51.552;6.716;2022-10-16T09:50:30;21.10;25.50
12817;DHT22;6473;51.552;6.716;2022-10-16T09:53:14;21.30;24.70
12817;DHT22;6473;51.552;6.716;2022-10-16T09:55:53;21.70;7.80
12817;DHT22;6473;51.552;6.716;2022-10-16T09:58:30;21.70;12.20
12817;DHT22;6473;51.552;6.716;2022-10-16T10:01:16;21.60;1.10
12817;DHT22;6473;51.552;6.716;2022-10-16T10:03:44;21.90;12.00
12817;DHT22;6473;51.552;6.716;2022-10-16T10:09:50;22.20;1.00
12817;DHT22;6473;51.552;6.716;2022-10-16T10:12:20;22.30;1.00
12817;DHT22;6473;51.552;6.716;2022-10-16T10:14:49;22.40;1.00
12817;DHT22;6473;51.552;6.716;2022-10-16T10:17:24;22.70;1.00
12817;DHT22;6473;51.552;6.716;2022-10-16T10:19:59;22.70;1.00
12817;DHT22;6473;51.552;6.716;2022-10-16T10:23:21;22.80;1.00
12817;DHT22;6473;51.552;6.716;2022-10-16T10:29:41;22.90;1.00
12817;DHT22;6473;51.552;6.716;2022-10-16T10:32:38;23.10;1.00
12817;DHT22;6473;51.552;6.716;2022-10-16T10:35:22;23.00;1.00
12817;DHT22;6473;51.552;6.716;2022-10-16T10:42:33;23.00;1.00
12817;DHT22;6473;51.552;6.716;2022-10-16T10:45:24;23.30;1.00
12817;DHT22;6473;51.552;6.716;2022-10-16T10:48:20;23.50;1.00
12817;DHT22;6473;51.552;6.716;2022-10-16T10:51:25;23.80;1.00
12817;DHT22;6473;51.552;6.716;2022-10-16T11:09:17;22.00;1.00
12817;DHT22;6473;51.552;6.716;2022-10-16T11:11:58;22.60;1.00
12817;DHT22;6473;51.552;6.716;2022-10-16T11:14:49;22.40;1.00
12817;DHT22;6473;51.552;6.716;2022-10-16T11:17:25;22.20;1.00
12817;DHT22;6473;51.552;6.716;2022-10-16T11:20:33;22.40;1.00
12817;DHT22;6473;51.552;6.716;2022-10-16T11:23:33;22.30;1.00
12817;DHT22;6473;51.552;6.716;2022-10-16T11:26:18;22.20;1.00
12817;DHT22;6473;51.552;6.716;2022-10-16T11:29:26;22.80;1.00
12817;DHT22;6473;51.552;6.716;2022-10-16T11:39:11;23.30;1.00
12817;DHT22;6473;51.552;6.716;2022-10-16T11:46:17;23.90;1.00
12817;DHT22;6473;51.552;6.716;2022-10-16T11:53:14;23.40;1.00
12817;DHT22;6473;51.552;6.716;2022-10-16T11:56:49;24.00;1.00
12817;DHT22;6473;51.552;6.716;2022-10-16T11:59:55;23.80;1.00
12817;DHT22;6473;51.552;6.716;2022-10-16T12:02:58;24.00;1.00
12817;DHT22;6473;51.552;6.716;2022-10-16T12:09:25;25.00;1.00
12817;DHT22;6473;51.552;6.716;2022-10-16T12:11:53;25.00;1.00
12817;DHT22;6473;51.552;6.716;2022-10-16T12:14:41;24.70;1.00
12817;DHT22;6473;51.552;6.716;2022-10-16T12:17:25;25.30;1.00
12817;DHT22;6473;51.552;6.716;2022-10-16T12:20:02;25.40;1.00
12817;DHT22;6473;51.552;6.716;2022-10-16T12:22:47;25.20;1.00
12817;DHT22;6473;51.552;6.716;2022-10-16T12:25:21;24.80;1.00
12817;DHT22;6473;51.552;6.716;2022-10-16T12:27:55;24.40;1.00
12817;DHT22;6473;51.552;6.716;2022-10-16T12:30:29;24.10;1.00
12817;DHT22;6473;51.552;6.716;2022-10-16T12:36:40;24.70;1.00
12817;DHT22;6473;51.552;6.716;2022-10-16T12:39:20;26.30;1.00
12817;DHT22;6473;51.552;6.716;2022-10-16T12:41:48;27.10;1.00
12817;DHT22;6473;51.552;6.716;2022-10-16T12:44:32;28.10;1.00
12817;DHT22;6473;51.552;6.716;2022-10-16T12:47:00;29.10;1.00
12817;DHT22;6473;51.552;6.716;2022-10-16T12:49:34;29.10;1.00
12817;DHT22;6473;51.552;6.716;2022-10-16T12:52:04;29.10;1.00
12817;DHT22;6473;51.552;6.716;2022-10-16T12:54:34;29.30;1.00
12817;DHT22;6473;51.552;6.716;2022-10-16T12:57:29;28.90;1.00
12817;DHT22;6473;51.552;6.716;2022-10-16T13:00:03;28.90;1.00
12817;DHT22;6473;51.552;6.716;2022-10-16T13:03:17;29.50;1.00
12817;DHT22;6473;51.552;6.716;2022-10-16T13:06:00;28.70;1.00
12817;DHT22;6473;51.552;6.716;2022-10-16T13:08:43;28.60;1.00
12817;DHT22;6473;51.552;6.716;2022-10-16T13:11:17;28.60;1.00
12817;DHT22;6473;51.552;6.716;2022-10-16T13:14:01;27.00;1.00
12817;DHT22;6473;51.552;6.716;2022-10-16T13:16:35;27.20;1.00
12817;DHT22;6473;51.552;6.716;2022-10-16T13:19:14;25.70;1.00
12817;DHT22;6473;51.552;6.716;2022-10-16T13:21:49;25.80;1.00
12817;DHT22;6473;51.552;6.716;2022-10-16T13:24:31;26.70;1.00
12817;DHT22;6473;51.552;6.716;2022-10-16T13:27:09;27.40;1.00
12817;DHT22;6473;51.552;6.716;2022-10-16T13:29:38;27.40;1.00
12817;DHT22;6473;51.552;6.716;2022-10-16T13:32:09;27.00;1.00
12817;DHT22;6473;51.552;6.716;2022-10-16T13:34:44;25.90;1.00
12817;DHT22;6473;51.552;6.716;2022-10-16T13:37:17;25.20;1.00
12817;DHT22;6473;51.552;6.716;2022-10-16T13:39:48;24.40;1.00
12817;DHT22;6473;51.552;6.716;2022-10-16T13:42:22;23.90;1.00
12817;DHT22;6473;51.552;6.716;2022-10-16T13:45:02;23.60;1.00
12817;DHT22;6473;51.552;6.716;2022-10-16T13:47:32;23.00;1.00
12817;DHT22;6473;51.552;6.716;2022-10-16T13:49:59;22.90;1.00
12817;DHT22;6473;51.552;6.716;2022-10-16T13:52:28;22.50;1.00
12817;DHT22;6473;51.552;6.716;2022-10-16T13:54:57;22.30;1.00
12817;DHT22;6473;51.552;6.716;2022-10-16T14:00:34;21.40;1.00
12817;DHT22;6473;51.552;6.716;2022-10-16T14:03:14;21.80;1.00
12817;DHT22;6473;51.552;6.716;2022-10-16T14:05:48;22.10;1.00
12817;DHT22;6473;51.552;6.716;2022-10-16T14:08:28;22.50;1.00
12817;DHT22;6473;51.552;6.716;2022-10-16T14:11:29;22.70;1.00
12817;DHT22;6473;51.552;6.716;2022-10-16T14:14:09;22.20;1.00
12817;DHT22;6473;51.552;6.716;2022-10-16T14:19:50;21.70;1.00
12817;DHT22;6473;51.552;6.716;2022-10-16T14:25:40;20.90;1.00
12817;DHT22;6473;51.552;6.716;2022-10-16T14:28:16;20.60;1.00
12817;DHT22;6473;51.552;6.716;2022-10-16T14:30:52;20.40;1.00
12817;DHT22;6473;51.552;6.716;2022-10-16T14:33:40;20.60;1.00
12817;DHT22;6473;51.552;6.716;2022-10-16T14:36:13;20.70;1.00
12817;DHT22;6473;51.552;6.716;2022-10-16T14:39:20;20.90;1.00
12817;DHT22;6473;51.552;6.716;2022-10-16T14:41:58;20.80;1.00
12817;DHT22;6473;51.552;6.716;2022-10-16T14:47:53;20.60;1.00
12817;DHT22;6473;51.552;6.716;2022-10-16T14:52:51;20.40;2.00
12817;DHT22;6473;51.552;6.716;2022-10-16T14:56:18;20.20;1.00
12817;DHT22;6473;51.552;6.716;2022-10-16T14:59:36;20.00;14.00
12817;DHT22;6473;51.552;6.716;2022-10-16T15:02:23;20.00;23.20
12817;DHT22;6473;51.552;6.716;2022-10-16T15:05:10;19.90;13.10
12817;DHT22;6473;51.552;6.716;2022-10-16T15:07:48;19.60;15.50
12817;DHT22;6473;51.552;6.716;2022-10-16T15:10:31;19.50;13.80
12817;DHT22;6473;51.552;6.716;2022-10-16T15:12:59;19.50;19.40
12817;DHT22;6473;51.552;6.716;2022-10-16T15:15:49;19.40;19.00
12817;DHT22;6473;51.552;6.716;2022-10-16T15:18:17;19.40;20.70
12817;DHT22;6473;51.552;6.716;2022-10-16T15:21:20;19.30;24.20
12817;DHT22;6473;51.552;6.716;2022-10-16T15:23:49;19.10;18.80
12817;DHT22;6473;51.552;6.716;2022-10-16T15:32:05;19.10;47.20
12817;DHT22;6473;51.552;6.716;2022-10-16T15:34:45;19.20;59.70
12817;DHT22;6473;51.552;6.716;2022-10-16T15:40:30;19.20;73.80
12817;DHT22;6473;51.552;6.716;2022-10-16T15:43:03;19.10;75.70
12817;DHT22;6473;51.552;6.716;2022-10-16T15:45:32;19.00;82.20
12817;DHT22;6473;51.552;6.716;2022-10-16T15:47:59;19.00;89.50
12817;DHT22;6473;51.552;6.716;2022-10-16T15:50:27;18.80;86.30
12817;DHT22;6473;51.552;6.716;2022-10-16T15:53:28;18.70;90.40
12817;DHT22;6473;51.552;6.716;2022-10-16T15:56:10;18.60;90.70
12817;DHT22;6473;51.552;6.716;2022-10-16T16:01:31;18.50;92.50
12817;DHT22;6473;51.552;6.716;2022-10-16T16:04:01;18.50;93.90
12817;DHT22;6473;51.552;6.716;2022-10-16T16:06:41;18.50;94.00
12817;DHT22;6473;51.552;6.716;2022-10-16T16:12:16;18.30;94.70
12817;DHT22;6473;51.552;6.716;2022-10-16T16:17:34;18.10;97.90
12817;DHT22;6473;51.552;6.716;2022-10-16T16:20:02;18.00;98.60
12817;DHT22;6473;51.552;6.716;2022-10-16T16:22:30;17.90;99.80
12817;DHT22;6473;51.552;6.716;2022-10-16T16:24:58;17.80;99.90
12817;DHT22;6473;51.552;6.716;2022-10-16T16:27:25;17.70;99.90
12817;DHT22;6473;51.552;6.716;2022-10-16T16:29:55;17.70;99.90
12817;DHT22;6473;51.552;6.716;2022-10-16T16:32:23;17.50;99.90
12817;DHT22;6473;51.552;6.716;2022-10-16T16:35:00;17.50;99.90
12817;DHT22;6473;51.552;6.716;2022-10-16T16:37:30;17.40;99.90
12817;DHT22;6473;51.552;6.716;2022-10-16T16:39:59;17.30;99.90
12817;DHT22;6473;51.552;6.716;2022-10-16T16:42:26;17.30;99.90
12817;DHT22;6473;51.552;6.716;2022-10-16T16:45:15;17.30;99.90
12817;DHT22;6473;51.552;6.716;2022-10-16T16:47:42;17.10;99.90
12817;DHT22;6473;51.552;6.716;2022-10-16T16:50:09;17.10;99.90
12817;DHT22;6473;51.552;6.716;2022-10-16T16:52:36;17.00;99.90
12817;DHT22;6473;51.552;6.716;2022-10-16T16:55:05;17.00;99.90
12817;DHT22;6473;51.552;6.716;2022-10-16T16:57:33;16.90;99.90
12817;DHT22;6473;51.552;6.716;2022-10-16T17:00:00;17.00;99.90
12817;DHT22;6473;51.552;6.716;2022-10-16T17:02:30;16.90;99.90
12817;DHT22;6473;51.552;6.716;2022-10-16T17:07:34;16.90;99.90
12817;DHT22;6473;51.552;6.716;2022-10-16T17:10:06;16.70;99.90
12817;DHT22;6473;51.552;6.716;2022-10-16T17:12:33;16.60;99.90
12817;DHT22;6473;51.552;6.716;2022-10-16T17:15:05;16.40;99.90
12817;DHT22;6473;51.552;6.716;2022-10-16T17:17:46;16.40;99.90
12817;DHT22;6473;51.552;6.716;2022-10-16T17:20:17;16.30;99.90
12817;DHT22;6473;51.552;6.716;2022-10-16T17:22:44;16.30;99.90
12817;DHT22;6473;51.552;6.716;2022-10-16T17:25:12;16.30;99.90
12817;DHT22;6473;51.552;6.716;2022-10-16T17:27:40;16.30;99.90
12817;DHT22;6473;51.552;6.716;2022-10-16T17:30:08;16.40;99.90
12817;DHT22;6473;51.552;6.716;2022-10-16T17:32:35;16.40;99.90
12817;DHT22;6473;51.552;6.716;2022-10-16T17:35:02;16.30;99.90
12817;DHT22;6473;51.552;6.716;2022-10-16T17:40:00;16.30;99.90
12817;DHT22;6473;51.552;6.716;2022-10-16T17:42:28;16.30;99.90
12817;DHT22;6473;51.552;6.716;2022-10-16T17:47:23;16.20;99.90
12817;DHT22;6473;51.552;6.716;2022-10-16T17:49:50;16.30;99.90
12817;DHT22;6473;51.552;6.716;2022-10-16T17:52:20;16.20;99.90
12817;DHT22;6473;51.552;6.716;2022-10-16T17:55:02;16.20;99.90
12817;DHT22;6473;51.552;6.716;2022-10-16T17:57:46;16.20;99.90
12817;DHT22;6473;51.552;6.716;2022-10-16T18:00:16;16.10;99.90
12817;DHT22;6473;51.552;6.716;2022-10-16T18:02:43;16.10;99.90
12817;DHT22;6473;51.552;6.716;2022-10-16T18:07:38;16.00;99.90
12817;DHT22;6473;51.552;6.716;2022-10-16T18:10:08;16.00;99.90
12817;DHT22;6473;51.552;6.716;2022-10-16T18:15:05;16.00;99.90
12817;DHT22;6473;51.552;6.716;2022-10-16T18:17:34;16.00;99.90
12817;DHT22;6473;51.552;6.716;2022-10-16T18:20:03;16.00;99.90
12817;DHT22;6473;51.552;6.716;2022-10-16T18:22:31;16.00;99.90
12817;DHT22;6473;51.552;6.716;2022-10-16T18:25:00;15.90;99.90
12817;DHT22;6473;51.552;6.716;2022-10-16T18:27:29;15.90;99.90
12817;DHT22;6473;51.552;6.716;2022-10-16T18:29:56;15.90;99.90
12817;DHT22;6473;51.552;6.716;2022-10-16T18:32:24;15.90;99.90
12817;DHT22;6473;51.552;6.716;2022-10-16T18:34:52;15.80;99.90
12817;DHT22;6473;51.552;6.716;2022-10-16T18:37:19;15.80;99.90
12817;DHT22;6473;51.552;6.716;2022-10-16T18:39:47;15.90;99.90
12817;DHT22;6473;51.552;6.716;2022-10-16T18:42:15;15.90;99.90
12817;DHT22;6473;51.552;6.716;2022-10-16T18:44:42;15.90;99.90
12817;DHT22;6473;51.552;6.716;2022-10-16T18:47:09;15.90;99.90
12817;DHT22;6473;51.552;6.716;2022-10-16T18:49:38;15.90;99.90
12817;DHT22;6473;51.552;6.716;2022-10-16T18:52:05;15.90;99.90
12817;DHT22;6473;51.552;6.716;2022-10-16T18:54:32;15.80;99.90
12817;DHT22;6473;51.552;6.716;2022-10-16T18:57:00;15.80;99.90
12817;DHT22;6473;51.552;6.716;2022-10-16T18:59:27;15.80;99.90
12817;DHT22;6473;51.552;6.716;2022-10-16T19:04:22;15.80;99.90
12817;DHT22;6473;51.552;6.716;2022-10-16T19:06:52;15.80;99.90
12817;DHT22;6473;51.552;6.716;2022-10-16T19:09:21;15.90;99.90
12817;DHT22;6473;51.552;6.716;2022-10-16T19:11:49;16.00;99.90
12817;DHT22;6473;51.552;6.716;2022-10-16T19:14:16;16.00;99.90
12817;DHT22;6473;51.552;6.716;2022-10-16T19:16:45;16.00;99.90
12817;DHT22;6473;51.552;6.716;2022-10-16T19:19:15;15.90;99.90
12817;DHT22;6473;51.552;6.716;2022-10-16T19:21:43;15.70;99.90
12817;DHT22;6473;51.552;6.716;2022-10-16T19:24:15;15.60;99.90
12817;DHT22;6473;51.552;6.716;2022-10-16T19:26:43;15.50;99.90
12817;DHT22;6473;51.552;6.716;2022-10-16T19:29:10;15.40;99.90
12817;DHT22;6473;51.552;6.716;2022-10-16T19:31:37;15.40;99.90
12817;DHT22;6473;51.552;6.716;2022-10-16T19:34:04;15.30;99.90
12817;DHT22;6473;51.552;6.716;2022-10-16T19:36:34;15.30;99.90
12817;DHT22;6473;51.552;6.716;2022-10-16T19:39:03;15.30;99.90
12817;DHT22;6473;51.552;6.716;2022-10-16T19:41:32;15.30;99.90
12817;DHT22;6473;51.552;6.716;2022-10-16T19:44:03;15.30;99.90
12817;DHT22;6473;51.552;6.716;2022-10-16T19:46:31;15.30;99.90
12817;DHT22;6473;51.552;6.716;2022-10-16T19:48:59;15.30;99.90
12817;DHT22;6473;51.552;6.716;2022-10-16T19:51:28;15.20;99.90
12817;DHT22;6473;51.552;6.716;2022-10-16T19:53:56;15.10;99.90
12817;DHT22;6473;51.552;6.716;2022-10-16T19:56:25;15.10;99.90
12817;DHT22;6473;51.552;6.716;2022-10-16T19:58:55;15.10;99.90
12817;DHT22;6473;51.552;6.716;2022-10-16T20:01:23;15.10;99.90
12817;DHT22;6473;51.552;6.716;2022-10-16T20:03:50;15.10;99.90
12817;DHT22;6473;51.552;6.716;2022-10-16T20:06:18;15.10;99.90